FW6720 Weather Reports


time (UTC)temp
F
wind
direction
speed
knots
gust
knots
rain 1hr
in
rain 24hr
in
rain mn
in
humidity
%
barometer
mb
20210920055801 48 71 0.0 0.0 0.00 0.48 0.48 97 1027.0
20210920055258 48 71 0.0 0.0 0.00 0.48 0.48 97 1027.0
20210920054758 48 71 0.0 0.0 0.00 0.48 0.48 97 1027.0
20210920054257 48 71 0.0 0.0 0.00 0.48 0.48 97 1026.9
20210920053756 49 71 0.0 0.0 0.00 0.48 0.48 97 1027.0
20210920053254 49 71 0.0 0.0 0.00 0.48 0.48 97 1026.8
20210920052754 49 71 0.0 0.0 0.00 0.48 0.48 97 1026.8
20210920052251 49 71 0.0 0.0 0.00 0.48 0.48 97 1026.8
20210920051750 49 71 0.0 0.0 0.00 0.48 0.48 97 1026.7
20210920051248 49 71 0.0 0.0 0.00 0.48 0.48 97 1026.9
20210920050748 49 71 0.0 0.0 0.00 0.48 0.48 97 1026.8
20210920050244 49 71 0.0 0.0 0.00 0.48 0.48 97 1026.8
20210920045743 50 71 0.0 0.0 0.00 0.48 0.48 97 1026.6
20210920045244 50 71 0.0 0.0 0.00 0.48 0.48 97 1026.6
20210920044742 50 70 0.0 0.0 0.00 0.48 0.48 97 1026.4
20210920044241 50 71 0.0 0.0 0.00 0.48 0.48 97 1026.3
20210920043740 50 70 0.0 0.0 0.00 0.48 0.48 97 1026.3
20210920043239 50 70 0.0 0.0 0.00 0.48 0.48 97 1026.4
20210920042738 50 70 0.0 0.0 0.00 0.48 0.48 97 1026.2
20210920042237 50 70 0.0 0.0 0.00 0.48 0.48 96 1026.1
20210920041736 51 70 0.0 0.0 0.00 0.48 0.48 96 1026.4
20210920041234 51 70 0.0 0.0 0.00 0.48 0.48 96 1026.0
20210920040729 51 70 0.0 0.0 0.00 0.48 0.48 96 1026.0
20210920040227 51 70 0.0 0.0 0.00 0.48 0.48 96 1026.1
20210920035723 51 70 0.0 0.0 0.00 0.48 0.48 96 1025.8
20210920035218 51 70 0.0 0.0 0.00 0.48 0.48 96 1025.8
20210920034718 52 70 0.0 0.0 0.00 0.48 0.48 96 1025.7
20210920034216 52 70 0.0 0.0 0.00 0.48 0.48 96 1025.5
20210920033713 52 70 0.0 0.0 0.00 0.48 0.48 96 1025.4
20210920033212 52 70 0.0 0.0 0.00 0.48 0.48 95 1025.4
20210920032711 52 70 0.0 0.0 0.00 0.48 0.48 95 1025.5
20210920032210 52 70 0.0 0.9 0.00 0.48 0.48 95 1025.3
20210920031703 53 70 0.0 0.0 0.00 0.48 0.48 95 1025.2
20210920031202 53 70 0.0 0.0 0.00 0.48 0.48 95 1025.2
20210920030701 53 70 0.9 0.9 0.00 0.48 0.48 95 1024.6
20210920030158 53 70 0.0 0.0 0.00 0.48 0.48 94 1024.8
20210920025659 53 70 0.0 0.0 0.00 0.48 0.48 94 1024.7
20210920025157 54 70 0.0 0.0 0.00 0.48 0.48 94 1024.6
20210920024656 54 70 0.0 0.0 0.00 0.48 0.48 94 1024.5
20210920024153 54 70 0.0 0.0 0.00 0.48 0.48 93 1024.2
20210920023652 55 70 0.0 0.0 0.00 0.48 0.48 93 1024.3
20210920023152 55 70 0.0 0.0 0.00 0.48 0.48 93 1024.2
20210920022650 55 70 0.0 0.0 0.00 0.48 0.48 92 1024.3
20210920022148 56 70 0.0 0.0 0.00 0.48 0.48 92 1024.3
20210920021647 56 70 0.0 0.0 0.00 0.48 0.48 91 1024.2
20210920021146 57 70 0.0 0.0 0.00 0.48 0.48 91 1024.3
20210920020631 57 70 0.0 0.0 0.00 0.48 0.48 90 1024.0
20210920020131 57 70 0.0 0.0 0.00 0.48 0.48 89 1023.9
20210920015630 57 70 0.0 0.0 0.00 0.48 0.48 86 1023.9
20210920015129 58 70 0.0 0.9 0.00 0.48 0.48 85 1023.9
20210920014627 58 70 0.9 0.9 0.00 0.48 0.48 83 1023.8
20210920014125 59 70 0.0 0.9 0.00 0.48 0.48 83 1023.7
20210920013623 58 70 0.0 0.0 0.00 0.48 0.48 81 1023.7
20210920013122 59 70 1.7 1.7 0.00 0.48 0.48 82 1023.8
20210920012621 59 70 0.0 0.9 0.00 0.48 0.48 81 1023.5
20210920012121 59 69 0.9 0.9 0.00 0.48 0.48 84 1023.5
20210920011617 59 70 0.0 0.0 0.00 0.48 0.48 80 1023.6
20210920011114 59 70 0.0 0.0 0.00 0.48 0.48 83 1023.7
20210920010614 59 70 0.0 0.0 0.00 0.48 0.48 81 1023.6
20210920010110 59 70 0.0 0.0 0.00 0.48 0.48 79 1023.6
20210920005610 59 53 0.0 0.0 0.00 0.48 0.48 82 1023.5
20210920005110 59 53 0.9 0.9 0.00 0.48 0.48 79 1023.4
20210920004608 60 56 0.9 1.7 0.00 0.48 0.48 78 1023.6
20210920004106 60 8 0.0 0.9 0.00 0.48 0.48 79 1023.3
20210920003606 60 26 0.9 0.9 0.00 0.48 0.48 79 1023.1
20210920003103 60 26 0.9 1.7 0.00 0.48 0.48 79 1023.3
20210920002552 60 16 1.7 1.7 0.00 0.48 0.48 78 1023.1
20210920002049 60 48 1.7 1.7 0.00 0.48 0.48 78 1023.3
20210920001548 59 49 0.0 0.9 0.00 0.48 0.48 80 1023.3
20210920001046 60 49 0.9 1.7 0.00 0.48 0.48 77 1023.1
20210920000543 60 49 0.9 0.9 0.00 0.48 0.48 76 1023.3
20210920000042 61 51 2.6 4.3 0.00 0.48 0.48 75 1022.8
20210919235542 61 8 1.7 1.7 0.00 0.48 0.48 75 1023.0
20210919235039 62 63 1.7 2.6 0.00 0.48 0.48 73 1022.9
20210919234539 62 66 0.0 0.9 0.00 0.48 0.48 73 1022.8
20210919234038 62 39 0.9 1.7 0.00 0.48 0.48 71 1022.5
20210919233535 62 69 1.7 2.6 0.00 0.48 0.48 70 1022.5
20210919233034 62 62 0.0 0.0 0.00 0.48 0.48 72 1022.8
20210919232528 62 25 1.7 2.6 0.00 0.48 0.48 73 1022.6
20210919232029 62 37 0.9 0.9 0.00 0.48 0.48 72 1022.6
20210919231525 63 103 0.0 0.9 0.00 0.48 0.48 72 1022.6
20210919231023 64 59 0.9 1.7 0.00 0.48 0.48 68 1022.4
20210919230523 63 73 0.9 0.9 0.00 0.48 0.48 69 1022.4
20210919230022 63 4 1.7 1.7 0.00 0.48 0.48 69 1022.3
20210919225520 64 354 2.6 2.6 0.00 0.48 0.48 69 1022.4
20210919225019 63 80 0.0 0.0 0.00 0.48 0.48 70 1022.3
20210919224516 63 66 1.7 1.7 0.00 0.48 0.48 68 1022.1
20210919224014 63 50 4.3 5.2 0.00 0.48 0.48 67 1022.1
20210919223513 63 52 2.6 4.3 0.00 0.48 0.48 67 1022.3
20210919223009 63 56 0.0 0.0 0.00 0.48 0.48 69 1022.3
20210919222509 64 64 0.0 0.0 0.00 0.48 0.48 71 1021.9
20210919222006 65 63 1.7 1.7 0.00 0.48 0.48 68 1022.1
20210919221505 65 64 0.0 0.9 0.00 0.48 0.48 71 1021.9
20210919220957 64 77 0.9 1.7 0.00 0.48 0.48 73 1021.9
20210919220456 64 67 0.9 0.9 0.00 0.48 0.48 70 1022.2
20210919215956 65 32 0.0 0.0 0.00 0.48 0.48 67 1022.0
20210919215454 65 76 1.7 2.6 0.00 0.48 0.48 65 1021.9
20210919214952 66 58 0.9 1.7 0.00 0.48 0.48 66 1021.8
20210919214452 64 71 0.9 0.9 0.00 0.48 0.48 68 1022.0
20210919213948 65 58 1.7 1.7 0.00 0.48 0.48 68 1021.9
20210919213447 64 88 1.7 5.2 0.00 0.48 0.48 71 1021.6
20210919212945 62 51 1.7 1.7 0.00 0.48 0.48 73 1021.9
20210919212442 65 81 0.9 1.7 0.00 0.48 0.48 69 1021.7
20210919211938 63 54 0.9 0.9 0.00 0.48 0.48 75 1021.8
20210919211437 62 68 0.0 0.0 0.00 0.48 0.48 72 1021.8
20210919210936 62 44 0.9 1.7 0.00 0.48 0.48 74 1021.7
20210919210433 63 42 0.9 1.7 0.00 0.48 0.48 74 1021.9
20210919205932 62 78 0.9 1.7 0.00 0.48 0.48 72 1021.6
20210919205430 61 68 0.0 0.0 0.00 0.48 0.48 77 1021.4
20210919204922 61 56 0.0 0.9 0.00 0.48 0.48 76 1021.7
20210919204406 61 79 0.9 0.9 0.00 0.48 0.48 75 1021.6
20210919203903 62 86 0.9 0.9 0.00 0.48 0.48 75 1021.4
20210919203402 62 63 0.9 0.9 0.00 0.48 0.48 76 1021.6
20210919202901 64 14 2.6 2.6 0.00 0.48 0.48 75 1021.7
20210919202401 62 41 5.2 7.0 0.00 0.48 0.48 74 1021.7
20210919201900 62 52 0.9 0.9 0.00 0.48 0.48 74 1021.6
20210919201359 62 83 0.9 0.9 0.00 0.48 0.48 74 1021.7
20210919200857 62 60 0.9 1.7 0.00 0.48 0.48 73 1021.6
20210919200355 62 98 0.9 1.7 0.00 0.48 0.48 76 1021.4
20210919195854 60 60 0.9 1.7 0.00 0.48 0.48 80 1021.3
20210919195352 60 72 1.7 1.7 0.00 0.48 0.48 79 1021.2
20210919194852 60 69 0.0 0.0 0.00 0.48 0.48 77 1021.2
20210919194348 61 52 0.9 2.6 0.00 0.48 0.48 73 1021.2
20210919193848 62 100 1.7 1.7 0.00 0.48 0.48 73 1021.1
20210919193347 63 100 0.0 0.9 0.00 0.48 0.48 69 1020.8
20210919192846 63 100 0.0 0.0 0.00 0.48 0.48 75 1020.7
20210919192344 64 100 0.0 0.9 0.00 0.48 0.48 73 1021.0
20210919191843 64 72 2.6 2.6 0.00 0.48 0.48 67 1021.1
20210919191341 64 184 2.6 4.3 0.00 0.48 0.48 70 1020.8
20210919190842 63 92 1.7 1.7 0.00 0.48 0.48 70 1020.6
20210919190341 63 52 0.9 0.9 0.00 0.48 0.48 70 1020.8
20210919185839 62 93 1.7 2.6 0.00 0.48 0.48 71 1020.6
20210919185338 62 8 3.5 4.3 0.00 0.48 0.48 75 1020.8
20210919184838 63 76 0.9 1.7 0.00 0.48 0.48 72 1020.7
20210919184329 63 49 0.9 1.7 0.00 0.48 0.48 70 1020.6
20210919183827 62 23 2.6 2.6 0.00 0.48 0.48 72 1020.6
20210919183326 62 46 1.7 1.7 0.00 0.48 0.48 73 1020.5
20210919182825 61 54 0.9 0.9 0.00 0.48 0.48 72 1020.1
20210919182324 61 87 3.5 5.2 0.00 0.48 0.48 73 1020.4
20210919181822 62 18 2.6 4.3 0.00 0.48 0.48 72 1020.3
20210919181321 61 77 0.9 0.9 0.00 0.48 0.48 74 1020.0
20210919180820 61 49 0.9 0.9 0.00 0.48 0.48 76 1020.1
20210919180318 60 66 0.0 0.0 0.00 0.48 0.48 76 1020.0
20210919175817 60 64 0.9 1.7 0.00 0.48 0.48 79 1020.0
20210919175316 59 55 0.9 0.9 0.00 0.48 0.48 80 1019.8
20210919174816 59 55 3.5 4.3 0.00 0.48 0.48 80 1019.7
20210919174314 59 79 0.9 1.7 0.00 0.48 0.48 84 1019.7
20210919173813 59 78 0.9 0.9 0.00 0.48 0.48 87 1019.8
20210919173311 58 82 0.0 0.0 0.00 0.48 0.48 84 1019.5
20210919172809 57 60 0.0 0.9 0.00 0.48 0.48 84 1019.7
20210919172308 57 54 0.9 2.6 0.00 0.48 0.48 92 1019.3
20210919171805 57 50 1.7 1.7 0.00 0.48 0.48 92 1019.4
20210919171304 55 50 0.9 1.7 0.00 0.48 0.48 94 1019.4
20210919170801 55 50 0.0 0.9 0.00 0.48 0.48 96 1019.3
20210919170301 54 50 0.0 0.0 0.00 0.48 0.48 96 1019.3
20210919165800 54 50 0.0 0.0 0.00 0.48 0.48 97 1019.2
20210919165259 54 50 0.0 0.0 0.00 0.48 0.48 97 1019.1
20210919164757 55 49 0.0 0.0 0.00 0.48 0.48 97 1018.9
20210919164257 53 49 0.0 0.9 0.00 0.48 0.48 98 1018.7
20210919163756 53 50 1.7 1.7 0.00 0.48 0.48 98 1018.5
20210919163252 53 50 0.9 0.9 0.00 0.48 0.48 98 1018.6
20210919162750 53 50 0.9 0.9 0.00 0.48 0.48 98 1018.6
20210919162250 53 50 0.9 0.9 0.00 0.48 0.48 97 1018.4
20210919161748 54 48 0.9 1.7 0.00 0.48 0.48 97 1018.4
20210919161248 54 48 1.7 1.7 0.00 0.48 0.48 97 1018.3
20210919160747 54 57 0.9 0.9 0.00 0.48 0.48 98 1018.2
20210919160245 54 57 0.9 0.9 0.00 0.48 0.48 98 1018.1
20210919155743 53 56 0.9 0.9 0.00 0.48 0.48 98 1018.0
20210919155242 53 70 0.9 0.9 0.00 0.48 0.48 99 1017.9
20210919154742 52 70 0.0 0.0 0.00 0.48 0.48 99 1018.0
20210919154240 53 70 0.0 0.0 0.00 0.48 0.48 99 1017.9
20210919153740 52 70 0.0 0.0 0.00 0.48 0.48 99 1018.0
20210919153238 51 71 0.0 0.0 0.00 0.48 0.48 99 1017.4
20210919152736 51 70 0.0 0.0 0.00 0.48 0.48 99 1017.6
20210919152234 51 70 0.0 0.0 0.00 0.48 0.48 99 1017.6
20210919151732 51 71 0.0 0.0 0.00 0.48 0.48 99 1017.6
20210919151229 51 71 0.0 0.0 0.00 0.48 0.48 99 1017.4
20210919150729 50 71 0.0 0.0 0.00 0.48 0.48 99 1017.3
20210919150227 50 71 0.0 0.0 0.00 0.48 0.48 99 1017.4
20210919145725 50 71 0.0 0.0 0.00 0.48 0.48 99 1017.1
20210919145224 50 70 0.0 0.0 0.00 0.48 0.48 99 1017.0
20210919144722 50 70 0.0 0.0 0.00 0.48 0.48 99 1017.0
20210919144219 50 70 0.0 0.0 0.00 0.48 0.48 99 1016.8
20210919143718 50 70 0.0 0.0 0.00 0.48 0.48 99 1016.8
20210919143217 50 70 0.0 0.0 0.00 0.48 0.48 99 1016.8
20210919142712 50 70 0.0 0.0 0.00 0.48 0.48 99 1016.7
20210919142211 50 70 0.0 0.0 0.00 0.48 0.48 99 1016.7
20210919141710 50 70 0.0 0.0 0.00 0.48 0.48 99 1016.3
20210919141208 50 70 0.0 0.0 0.00 0.48 0.48 99 1016.4
20210919140707 50 70 0.0 0.0 0.00 0.48 0.48 99 1016.2
20210919140205 50 70 0.0 0.0 0.00 0.48 0.48 99 1016.5
20210919135703 50 70 0.0 0.0 0.00 0.48 0.48 99 1016.0
20210919135202 50 70 0.0 0.0 0.07 0.48 0.48 99 1016.1
20210919134701 50 70 0.0 0.0 0.07 0.48 0.48 99 1016.0
20210919134158 50 70 0.0 0.0 0.00 0.46 0.46 99 1015.7
20210919133657 50 70 0.0 0.0 0.00 0.46 0.46 99 1016.0
20210919133155 50 70 0.0 0.0 0.00 0.46 0.46 99 1016.0
20210919132654 50 70 0.0 0.0 0.00 0.46 0.46 99 1015.9
20210919132153 50 70 0.0 0.0 0.00 0.46 0.46 99 1015.7
20210919131646 50 70 0.0 0.0 0.00 0.46 0.46 99 1015.6
20210919131143 50 70 0.0 0.0 0.00 0.46 0.46 99 1015.5
20210919130641 50 70 0.0 0.0 0.00 0.46 0.46 99 1015.5
20210919130141 50 70 0.0 0.0 0.00 0.46 0.46 99 1015.3
20210919125640 50 70 0.0 0.0 0.00 0.46 0.46 99 1015.0
20210919125136 50 70 0.0 0.0 0.00 0.46 0.46 99 1015.2
20210919124637 50 70 0.0 0.0 0.00 0.46 0.46 99 1015.3
20210919124136 50 70 0.0 0.0 0.00 0.46 0.46 99 1015.0
20210919123634 50 70 0.0 0.0 0.00 0.46 0.46 99 1014.9
20210919123133 50 70 0.0 0.0 0.00 0.46 0.46 99 1014.8
20210919122632 50 70 0.0 0.0 0.00 0.46 0.46 99 1014.6
20210919122131 50 70 0.0 0.0 0.00 0.46 0.46 99 1014.8
20210919121630 50 70 0.0 0.0 0.00 0.46 0.46 99 1014.6
20210919121129 50 70 0.0 0.0 0.00 0.46 0.46 99 1014.5
20210919120626 50 70 0.0 0.0 0.00 0.46 0.46 99 1014.5
20210919120125 50 70 0.0 0.0 0.00 0.46 0.46 99 1014.5
20210919115623 50 70 0.0 0.0 0.00 0.46 0.46 99 1014.5
20210919115122 50 70 0.0 0.0 0.00 0.46 0.46 99 1014.4
20210919114620 50 70 0.0 0.0 0.00 0.46 0.46 99 1014.4
20210919114118 50 70 0.0 0.0 0.00 0.46 0.46 99 1014.2
20210919113614 51 70 0.0 0.0 0.00 0.46 0.46 99 1014.2
20210919113113 51 70 0.0 0.0 0.00 0.46 0.46 99 1014.0
20210919112613 51 70 0.0 0.0 0.04 0.46 0.46 99 1014.0
20210919112111 51 70 0.0 0.0 0.04 0.46 0.46 99 1014.3
20210919111609 51 70 0.0 0.0 0.07 0.46 0.46 99 1013.9
20210919111107 51 70 0.0 0.0 0.11 0.46 0.46 99 1013.8
20210919110607 51 70 0.0 0.0 0.16 0.44 0.44 99 1013.9
20210919110057 51 70 0.0 0.0 0.18 0.44 0.44 99 1013.8
20210919105556 51 70 0.0 0.0 0.18 0.42 0.42 99 1013.9
20210919105053 51 70 0.0 0.0 0.14 0.40 0.40 99 1013.9
20210919104552 51 71 0.0 0.0 0.11 0.39 0.39 99 1013.7
20210919104051 51 71 0.0 0.0 0.11 0.37 0.37 99 1013.7
20210919103548 51 71 0.0 0.0 0.11 0.37 0.37 99 1013.9
20210919103047 51 71 0.0 0.0 0.11 0.35 0.35 99 1013.7
20210919102547 51 71 0.0 0.0 0.11 0.33 0.33 99 1013.7
20210919102046 51 71 0.0 0.0 0.23 0.33 0.33 99 1013.4
20210919101533 51 71 0.0 0.0 0.16 0.31 0.31 99 1013.6
20210919101032 51 71 0.0 0.9 0.11 0.29 0.29 99 1013.6
20210919100529 51 71 0.0 0.0 0.18 0.29 0.29 99 1013.7
20210919100022 51 71 0.0 0.0 0.23 0.28 0.28 99 1013.7
20210919095520 51 71 0.0 0.0 0.18 0.26 0.26 98 1013.5
20210919095018 51 71 0.0 0.9 0.11 0.24 0.24 99 1013.6
20210919094518 51 71 0.0 0.0 0.16 0.22 0.22 99 1013.5
20210919094017 51 71 0.0 0.0 0.18 0.22 0.22 98 1013.5
20210919093516 51 71 0.0 0.0 0.18 0.20 0.20 98 1013.5
20210919093015 51 71 0.0 0.0 0.16 0.18 0.18 98 1013.5
20210919092514 51 71 0.0 0.0 0.16 0.16 0.16 98 1013.5
20210919092011 51 71 0.0 0.0 0.18 0.16 0.16 98 1013.5
20210919091510 51 71 0.0 0.0 0.07 0.14 0.14 98 1013.4
20210919091009 51 71 0.0 0.0 0.07 0.13 0.13 98 1013.0
20210919090509 51 71 0.0 0.0 0.07 0.13 0.13 98 1013.1
20210919090007 51 71 0.0 0.0 0.00 0.11 0.11 98 1013.1
20210919085507 51 71 0.0 0.0 0.04 0.11 0.11 98 1012.6
20210919085006 51 71 0.0 0.0 0.16 0.11 0.11 98 1012.7
20210919084505 51 71 0.0 0.0 0.18 0.11 0.11 98 1012.7
20210919084004 51 71 0.0 0.0 0.18 0.09 0.09 98 1012.8
20210919083504 51 71 0.0 0.0 0.23 0.07 0.07 98 1012.9
20210919082959 51 71 0.0 0.0 0.16 0.05 0.05 98 1012.7
20210919082459 51 71 0.0 0.0 0.04 0.03 0.03 98 1012.4
20210919081956 51 71 0.0 0.0 0.00 0.03 0.03 98 1012.2
20210919081454 51 71 0.0 0.0 0.00 0.03 0.03 98 1012.3
20210919080955 51 71 0.0 0.0 0.07 0.03 0.03 98 1012.3
20210919080452 51 71 0.0 0.0 0.07 0.03 0.03 98 1012.3
20210919075952 51 71 0.0 0.0 0.00 0.02 0.02 98 1012.0
20210919075451 51 71 0.0 0.0 0.07 0.02 0.02 98 1012.4
20210919074949 51 71 0.9 0.9 0.07 0.02 0.02 98 1012.2
20210919074449 51 71 0.0 0.0 0.04 0.00 0.00 98 1012.3
20210919073947 51 71 0.0 0.9 0.04 0.00 0.00 98 1012.4
20210919073445 51 71 0.0 0.0 0.00 0.00 0.00 98 1012.3
20210919072945 51 71 0.0 0.0 0.00 0.00 0.00 98 1012.4
20210919072443 51 71 0.0 0.0 0.00 0.00 0.00 98 1012.1
20210919071942 51 71 1.7 1.7 0.00 0.00 0.00 98 1012.2
20210919071440 51 71 0.9 0.9 0.00 0.00 0.00 98 1012.0
20210919070937 51 71 0.0 0.0 0.00 0.00 0.00 98 1012.1
20210919070437 51 71 0.0 0.0 0.00 0.00 0.00 98 1012.2
20210919065936 51 71 0.9 0.9 0.07 1.96 1.96 98 1012.1
20210919065435 51 71 0.0 0.0 0.18 1.96 1.96 98 1012.0
20210919064934 51 71 0.9 0.9 0.35 1.94 1.94 98 1012.2
20210919064434 52 71 0.0 0.9 0.30 1.92 1.92 98 1012.6
20210919063934 52 71 0.0 0.0 0.30 1.89 1.89 98 1012.3
20210919063433 52 71 0.0 0.0 0.30 1.87 1.87 98 1012.1
20210919062931 52 71 0.0 0.0 0.23 1.83 1.83 98 1012.2
20210919062430 52 71 0.0 0.0 0.11 1.81 1.81 98 1011.9
20210919061929 53 71 0.0 0.0 0.00 1.79 1.79 98 1011.8
20210919061428 53 71 0.0 0.0 0.04 1.79 1.79 98 1011.7
20210919060926 53 71 0.0 0.0 0.35 1.79 1.79 98 1011.5
20210919060426 53 71 0.0 0.0 0.96 1.79 1.79 98 1011.5
20210919055924 53 71 0.0 0.0 0.89 1.74 1.74 98 1011.7